Welcome to our new website - Welkom op onze vernieuwde website - Bienvenue sur notre nouveau site web - Willkommen auf unserer neuen Website
Check our progress frequently. Prüfen Sie unsere Fortschritte regelmäßig. Consultez notre progression fréquemment. Komt u straks nog eens terug


Hej. Vi har købt ny vejrstation, og er ved at bygge en helt ny vejrside.
Kom snart tilbage og følg udviklingen.
Du kan også komme med kommentarer eller evt. ønsker via "Kontakt" i bunden.



Webcam more information Webcam


Rain radar more information rain snow radar


Visit our other weather sites:

Template documentation
and downloads

And another site



Nearby METAR Reports

   
EBBR - Brussels International Airport, Belgium
Distance from station: W 14 km
Updated: 24-09-2018 23:50
Clear  
Clear  
   Wind: West 5.6 km/h
Wind: West 5.6 km/h
Temperature: 6°C
Wind Chill: 5°C
Dew Point: 5°C
Humidity: 93%
Barometer: 1038 hPa
Visibility: More than 10 km
Cloud details: Clear
EBBR 242150Z 27003KT 230V290 CAVOK 06/05 Q1038 NOSIG
EBBE - Beauvechain (Bevekom), Belgium
Distance from station: SSE 17 km
Updated: 20-09-2018 16:25
NOT Current
Partly Cloudy  
Partly Cloudy  
   Wind: SSW 27.8 km/h
Wind: SSW 27.8 km/h
Temperature: 24°C
Dew Point: 12°C
Humidity: 47%
Barometer: 1015 hPa
Clouds: Partly Cloudy
Visibility: More than 10 km
Cloud details: Partly Cloudy 25000 ft
EBBE 201425Z 21015KT 9999 SCT250 24/12 Q1015 BLU BLU
EBDT - Schaffen, Belgium
Distance from station: ENE 29 km
Updated: 20-09-2018 16:25
NOT Current
Partly Cloudy  
Partly Cloudy  
   Wind: SSW 20.4 km/h
Wind: SSW 20.4 km/h
Temperature: 25°C
Dew Point: 12°C
Humidity: 44%
Barometer: 1014 hPa
Clouds: Partly Cloudy
Visibility: More than 10 km
Cloud details: Partly Cloudy 20000 ft
EBDT 201425Z AUTO 21011KT 9999 SCT200/// 25/12 Q1014 BLU
EBAW - Antwerp/Deurne, Belgium
Distance from station: NNW 38 km
Updated: 24-09-2018 23:50
Clear  
Clear  
   Wind: Calm
Wind: Calm
Temperature: 6°C
Dew Point: 4°C
Humidity: 87%
Barometer: 1038 hPa
Visibility: More than 10 km
Cloud details: Clear
EBAW 242150Z AUTO 00000KT CAVOK 06/04 Q1038
EBCI - Charleroi/Gosselies, Belgium
Distance from station: SSW 51 km
Updated: 24-09-2018 23:50
Clear  
Clear  
   Wind: North 5.6 km/h
Wind: North 5.6 km/h
Temperature: 8°C
Wind Chill: 7°C
Dew Point: 4°C
Humidity: 76%
Barometer: 1038 hPa
Visibility: More than 10 km
Cloud details: Clear
EBCI 242150Z 35003KT 320V020 CAVOK 08/04 Q1038 NOSIG
EBLG - Bierset/Liege, Belgium
Distance from station: ESE 60 km
Updated: 24-09-2018 23:50
Clear  
Clear  
   Wind: West 5.6 km/h
Wind: West 5.6 km/h
Temperature: 7°C
Wind Chill: 6°C
Dew Point: 4°C
Humidity: 81%
Barometer: 1037 hPa
Visibility: More than 10 km
Cloud details: Clear
EBLG 242150Z 27003KT CAVOK 07/04 Q1037 NOSIG

Script developed by  Saratoga-weather.org Adapted for the template by  Weerstation Leuven

You find our weather info also at:

European Weather Network

Weather Underground

European Weather Network

Equipment we use:

Weather-station
Davis VP2

Weather-program
Weather Display

Davis VP2

Weather Display



Hej. Vi har købt ny vejrstation, og er ved at bygge en helt ny vejrside.
Kom snart tilbage og følg udviklingen.
Du kan også komme med kommentarer eller evt. ønsker via "Kontakt" i bunden.